sensor_id;sensor_type;location;lat;lon;timestamp;pressure;altitude;pressure_sealevel;temperature;humidity
55656;BME280;41530;52.382;5.270;2024-01-11T00:00:30;103610.50;;;12.77;49.45
55656;BME280;41530;52.382;5.270;2024-01-11T00:02:57;103608.72;;;12.77;49.74
55656;BME280;41530;52.382;5.270;2024-01-11T00:05:24;103612.31;;;12.75;49.50
55656;BME280;41530;52.382;5.270;2024-01-11T00:07:51;103588.94;;;12.64;49.42
55656;BME280;41530;52.382;5.270;2024-01-11T00:10:18;103603.59;;;12.73;49.96
55656;BME280;41530;52.382;5.270;2024-01-11T00:12:45;103605.25;;;12.75;49.59
55656;BME280;41530;52.382;5.270;2024-01-11T00:15:12;103606.19;;;12.74;49.54
55656;BME280;41530;52.382;5.270;2024-01-11T00:17:39;103594.94;;;12.68;49.64
55656;BME280;41530;52.382;5.270;2024-01-11T00:20:09;103593.22;;;12.67;49.60
55656;BME280;41530;52.382;5.270;2024-01-11T00:22:38;103587.19;;;12.63;49.47
55656;BME280;41530;52.382;5.270;2024-01-11T00:25:05;103599.31;;;12.69;49.85
55656;BME280;41530;52.382;5.270;2024-01-11T00:27:32;103581.97;;;12.62;49.70
55656;BME280;41530;52.382;5.270;2024-01-11T00:29:58;103594.13;;;12.66;49.68
55656;BME280;41530;52.382;5.270;2024-01-11T00:32:25;103609.88;;;12.69;49.81
55656;BME280;41530;52.382;5.270;2024-01-11T00:34:52;103579.56;;;12.54;49.70
55656;BME280;41530;52.382;5.270;2024-01-11T00:37:19;103590.84;;;12.59;49.64
55656;BME280;41530;52.382;5.270;2024-01-11T00:39:46;103595.28;;;12.59;49.69
55656;BME280;41530;52.382;5.270;2024-01-11T00:42:12;103608.09;;;12.69;49.56
55656;BME280;41530;52.382;5.270;2024-01-11T00:44:39;103604.59;;;12.69;49.71
55656;BME280;41530;52.382;5.270;2024-01-11T00:47:07;103608.09;;;12.69;49.80
55656;BME280;41530;52.382;5.270;2024-01-11T00:49:35;103592.59;;;12.60;49.70
55656;BME280;41530;52.382;5.270;2024-01-11T00:52:02;103583.06;;;12.55;49.50
55656;BME280;41530;52.382;5.270;2024-01-11T00:54:29;103596.03;;;12.62;49.72
55656;BME280;41530;52.382;5.270;2024-01-11T00:56:56;103577.84;;;12.53;49.58
55656;BME280;41530;52.382;5.270;2024-01-11T00:59:26;103591.72;;;12.60;49.52
55656;BME280;41530;52.382;5.270;2024-01-11T01:01:52;103589.19;;;12.57;49.62
55656;BME280;41530;52.382;5.270;2024-01-11T01:04:19;103600.34;;;12.65;49.71
55656;BME280;41530;52.382;5.270;2024-01-11T01:06:46;103602.91;;;12.66;49.74
55656;BME280;41530;52.382;5.270;2024-01-11T01:09:15;103604.59;;;12.69;49.78
55656;BME280;41530;52.382;5.270;2024-01-11T01:11:42;103617.00;;;12.67;49.73
55656;BME280;41530;52.382;5.270;2024-01-11T01:14:09;103604.88;;;12.61;49.76
55656;BME280;41530;52.382;5.270;2024-01-11T01:16:36;103610.78;;;12.68;49.67
55656;BME280;41530;52.382;5.270;2024-01-11T01:19:04;103616.13;;;12.66;49.61
55656;BME280;41530;52.382;5.270;2024-01-11T01:21:31;103617.97;;;12.64;49.71
55656;BME280;41530;52.382;5.270;2024-01-11T01:23:58;103604.25;;;12.53;49.51
55656;BME280;41530;52.382;5.270;2024-01-11T01:26:25;103590.47;;;12.45;49.49
55656;BME280;41530;52.382;5.270;2024-01-11T01:28:51;103607.72;;;12.55;49.50
55656;BME280;41530;52.382;5.270;2024-01-11T01:31:18;103605.03;;;12.57;49.74
55656;BME280;41530;52.382;5.270;2024-01-11T01:33:45;103609.28;;;12.61;49.73
55656;BME280;41530;52.382;5.270;2024-01-11T01:36:12;103610.22;;;12.60;49.55
55656;BME280;41530;52.382;5.270;2024-01-11T01:38:38;103605.94;;;12.56;49.65
55656;BME280;41530;52.382;5.270;2024-01-11T01:41:05;103613.75;;;12.59;49.35
55656;BME280;41530;52.382;5.270;2024-01-11T01:43:32;103610.53;;;12.51;49.65
55656;BME280;41530;52.382;5.270;2024-01-11T01:45:59;103622.75;;;12.53;49.62
55656;BME280;41530;52.382;5.270;2024-01-11T01:48:27;103628.09;;;12.52;49.68
55656;BME280;41530;52.382;5.270;2024-01-11T01:50:54;103629.88;;;12.51;49.64
55656;BME280;41530;52.382;5.270;2024-01-11T01:53:22;103645.50;;;12.57;49.72
55656;BME280;41530;52.382;5.270;2024-01-11T01:55:50;103646.38;;;12.58;49.53
55656;BME280;41530;52.382;5.270;2024-01-11T01:58:19;103641.94;;;12.58;49.46
55656;BME280;41530;52.382;5.270;2024-01-11T02:00:48;103634.97;;;12.56;49.35
55656;BME280;41530;52.382;5.270;2024-01-11T02:03:17;103645.41;;;12.60;49.54
55656;BME280;41530;52.382;5.270;2024-01-11T02:05:44;103643.72;;;12.58;49.48
55656;BME280;41530;52.382;5.270;2024-01-11T02:08:15;103596.19;;;12.31;49.38
55656;BME280;41530;52.382;5.270;2024-01-11T02:10:44;103617.72;;;12.45;49.50
55656;BME280;41530;52.382;5.270;2024-01-11T02:13:12;103646.31;;;12.59;49.45
55656;BME280;41530;52.382;5.270;2024-01-11T02:15:41;103634.22;;;12.52;49.43
55656;BME280;41530;52.382;5.270;2024-01-11T02:18:08;103645.63;;;12.53;49.51
55656;BME280;41530;52.382;5.270;2024-01-11T02:20:35;103661.34;;;12.57;49.67
55656;BME280;41530;52.382;5.270;2024-01-11T02:23:05;103658.69;;;12.57;49.61
55656;BME280;41530;52.382;5.270;2024-01-11T02:25:33;103641.34;;;12.50;49.58
55656;BME280;41530;52.382;5.270;2024-01-11T02:27:59;103639.50;;;12.52;49.57
55656;BME280;41530;52.382;5.270;2024-01-11T02:30:26;103629.06;;;12.49;49.50
55656;BME280;41530;52.382;5.270;2024-01-11T02:32:53;103627.25;;;12.51;49.72
55656;BME280;41530;52.382;5.270;2024-01-11T02:35:21;103621.97;;;12.51;49.65
55656;BME280;41530;52.382;5.270;2024-01-11T02:37:48;103625.38;;;12.53;49.52
55656;BME280;41530;52.382;5.270;2024-01-11T02:40:15;103633.22;;;12.56;49.53
55656;BME280;41530;52.382;5.270;2024-01-11T02:42:42;103633.22;;;12.56;49.66
55656;BME280;41530;52.382;5.270;2024-01-11T02:45:11;103614.22;;;12.45;49.52
55656;BME280;41530;52.382;5.270;2024-01-11T02:47:39;103631.44;;;12.57;49.57
55656;BME280;41530;52.382;5.270;2024-01-11T02:50:06;103642.00;;;12.57;49.43
55656;BME280;41530;52.382;5.270;2024-01-11T02:52:34;103649.91;;;12.57;49.42
55656;BME280;41530;52.382;5.270;2024-01-11T02:55:02;103636.97;;;12.49;49.65
55656;BME280;41530;52.382;5.270;2024-01-11T02:57:28;103629.88;;;12.51;49.47
55656;BME280;41530;52.382;5.270;2024-01-11T02:59:55;103649.09;;;12.55;49.34
55656;BME280;41530;52.382;5.270;2024-01-11T03:02:22;103644.78;;;12.52;49.33
55656;BME280;41530;52.382;5.270;2024-01-11T03:04:49;103650.06;;;12.52;49.69
55656;BME280;41530;52.382;5.270;2024-01-11T03:07:16;103656.28;;;12.51;49.63
55656;BME280;41530;52.382;5.270;2024-01-11T03:09:42;103629.19;;;12.44;49.50
55656;BME280;41530;52.382;5.270;2024-01-11T03:12:09;103637.03;;;12.47;49.60
55656;BME280;41530;52.382;5.270;2024-01-11T03:14:36;103636.16;;;12.47;49.43
55656;BME280;41530;52.382;5.270;2024-01-11T03:17:03;103624.97;;;12.39;49.44
55656;BME280;41530;52.382;5.270;2024-01-11T03:19:29;103636.97;;;12.49;49.57
55656;BME280;41530;52.382;5.270;2024-01-11T03:21:56;103653.56;;;12.53;49.47
55656;BME280;41530;52.382;5.270;2024-01-11T03:24:23;103647.50;;;12.51;49.60
55656;BME280;41530;52.382;5.270;2024-01-11T03:26:49;103629.19;;;12.44;49.28
55656;BME280;41530;52.382;5.270;2024-01-11T03:29:16;103618.63;;;12.44;49.52
55656;BME280;41530;52.382;5.270;2024-01-11T03:31:48;103637.84;;;12.49;49.59
55656;BME280;41530;52.382;5.270;2024-01-11T03:34:17;103639.72;;;12.46;49.27
55656;BME280;41530;52.382;5.270;2024-01-11T03:36:43;103644.84;;;12.51;49.60
55656;BME280;41530;52.382;5.270;2024-01-11T03:39:10;103629.28;;;12.41;49.56
55656;BME280;41530;52.382;5.270;2024-01-11T03:41:37;103639.66;;;12.47;49.58
55656;BME280;41530;52.382;5.270;2024-01-11T03:44:05;103650.06;;;12.52;49.63
55656;BME280;41530;52.382;5.270;2024-01-11T03:46:31;103627.44;;;12.45;49.68
55656;BME280;41530;52.382;5.270;2024-01-11T03:48:58;103620.47;;;12.42;49.78
55656;BME280;41530;52.382;5.270;2024-01-11T03:51:26;103628.44;;;12.41;49.59
55656;BME280;41530;52.382;5.270;2024-01-11T03:53:53;103660.63;;;12.52;49.77
55656;BME280;41530;52.382;5.270;2024-01-11T03:56:20;103623.59;;;12.27;49.45
55656;BME280;41530;52.382;5.270;2024-01-11T03:58:47;103633.03;;;12.36;49.47
55656;BME280;41530;52.382;5.270;2024-01-11T04:01:14;103632.34;;;12.29;49.41
55656;BME280;41530;52.382;5.270;2024-01-11T04:03:41;103680.97;;;12.50;49.47
55656;BME280;41530;52.382;5.270;2024-01-11T04:06:08;103663.63;;;12.41;49.69
55656;BME280;41530;52.382;5.270;2024-01-11T04:08:35;103679.22;;;12.49;49.60
55656;BME280;41530;52.382;5.270;2024-01-11T04:11:03;103672.22;;;12.48;49.62
55656;BME280;41530;52.382;5.270;2024-01-11T04:13:33;103663.56;;;12.43;49.45
55656;BME280;41530;52.382;5.270;2024-01-11T04:16:04;103675.72;;;12.48;49.34
55656;BME280;41530;52.382;5.270;2024-01-11T04:18:31;103672.41;;;12.42;49.47
55656;BME280;41530;52.382;5.270;2024-01-11T04:20:58;103672.34;;;12.43;49.39
55656;BME280;41530;52.382;5.270;2024-01-11T04:23:24;103676.78;;;12.43;49.44
55656;BME280;41530;52.382;5.270;2024-01-11T04:25:51;103685.66;;;12.40;49.36
55656;BME280;41530;52.382;5.270;2024-01-11T04:28:18;103689.31;;;12.36;49.61
55656;BME280;41530;52.382;5.270;2024-01-11T04:30:45;103701.41;;;12.43;49.82
55656;BME280;41530;52.382;5.270;2024-01-11T04:33:12;103684.84;;;12.38;49.61
55656;BME280;41530;52.382;5.270;2024-01-11T04:35:39;103690.06;;;12.40;49.50
55656;BME280;41530;52.382;5.270;2024-01-11T04:38:06;103690.75;;;12.46;49.38
55656;BME280;41530;52.382;5.270;2024-01-11T04:40:32;103682.34;;;12.34;49.51
55656;BME280;41530;52.382;5.270;2024-01-11T04:42:59;103682.16;;;12.40;49.56
55656;BME280;41530;52.382;5.270;2024-01-11T04:45:26;103675.91;;;12.42;49.65
55656;BME280;41530;52.382;5.270;2024-01-11T04:47:52;103679.50;;;12.40;49.51
55656;BME280;41530;52.382;5.270;2024-01-11T04:50:19;103677.78;;;12.39;49.43
55656;BME280;41530;52.382;5.270;2024-01-11T04:52:48;103682.88;;;12.45;49.47
55656;BME280;41530;52.382;5.270;2024-01-11T04:55:15;103673.31;;;12.41;49.50
55656;BME280;41530;52.382;5.270;2024-01-11T04:57:42;103666.47;;;12.35;49.55
55656;BME280;41530;52.382;5.270;2024-01-11T05:00:09;103684.59;;;12.46;49.48
55656;BME280;41530;52.382;5.270;2024-01-11T05:02:35;103677.78;;;12.39;49.36
55656;BME280;41530;52.382;5.270;2024-01-11T05:05:02;103654.13;;;12.36;49.45
55656;BME280;41530;52.382;5.270;2024-01-11T05:07:30;103672.41;;;12.42;49.31
55656;BME280;41530;52.382;5.270;2024-01-11T05:09:56;103658.44;;;12.38;49.40
55656;BME280;41530;52.382;5.270;2024-01-11T05:12:23;103643.53;;;12.37;49.34
55656;BME280;41530;52.382;5.270;2024-01-11T05:14:51;103630.47;;;12.33;49.25
55656;BME280;41530;52.382;5.270;2024-01-11T05:17:18;103640.72;;;12.42;49.28
55656;BME280;41530;52.382;5.270;2024-01-11T05:19:45;103607.72;;;12.29;49.23
55656;BME280;41530;52.382;5.270;2024-01-11T05:22:11;103626.50;;;12.46;49.47
55656;BME280;41530;52.382;5.270;2024-01-11T05:24:38;103625.78;;;12.41;49.54
55656;BME280;41530;52.382;5.270;2024-01-11T05:27:05;103650.47;;;12.40;49.62
55656;BME280;41530;52.382;5.270;2024-01-11T05:29:31;103651.44;;;12.37;49.52
55656;BME280;41530;52.382;5.270;2024-01-11T05:31:58;103647.72;;;12.43;49.33
55656;BME280;41530;52.382;5.270;2024-01-11T05:34:25;103643.28;;;12.45;49.44
55656;BME280;41530;52.382;5.270;2024-01-11T05:36:52;103647.88;;;12.38;49.25
55656;BME280;41530;52.382;5.270;2024-01-11T05:39:19;103653.97;;;12.40;49.33
55656;BME280;41530;52.382;5.270;2024-01-11T05:41:45;103638.25;;;12.37;49.34
55656;BME280;41530;52.382;5.270;2024-01-11T05:44:12;103667.91;;;12.45;49.43
55656;BME280;41530;52.382;5.270;2024-01-11T05:46:39;103659.19;;;12.42;49.40
55656;BME280;41530;52.382;5.270;2024-01-11T05:49:05;103660.06;;;12.42;49.44
55656;BME280;41530;52.382;5.270;2024-01-11T05:51:32;103664.56;;;12.39;49.27
55656;BME280;41530;52.382;5.270;2024-01-11T05:53:59;103669.81;;;12.40;49.81
55656;BME280;41530;52.382;5.270;2024-01-11T05:56:25;103676.13;;;12.36;49.89
55656;BME280;41530;52.382;5.270;2024-01-11T05:58:52;103704.00;;;12.45;49.92
55656;BME280;41530;52.382;5.270;2024-01-11T06:01:19;103644.63;;;12.02;49.68
55656;BME280;41530;52.382;5.270;2024-01-11T06:03:48;103691.41;;;12.25;49.92
55656;BME280;41530;52.382;5.270;2024-01-11T06:06:15;103719.44;;;12.29;49.71
55656;BME280;41530;52.382;5.270;2024-01-11T06:08:41;103720.22;;;12.33;49.97
55656;BME280;41530;52.382;5.270;2024-01-11T06:11:10;103732.34;;;12.38;49.90
55656;BME280;41530;52.382;5.270;2024-01-11T06:13:36;103743.69;;;12.42;49.83
55656;BME280;41530;52.382;5.270;2024-01-11T06:16:03;103740.22;;;12.40;49.84
55656;BME280;41530;52.382;5.270;2024-01-11T06:18:30;103750.75;;;12.41;49.84
55656;BME280;41530;52.382;5.270;2024-01-11T06:20:57;103758.72;;;12.40;49.82
55656;BME280;41530;52.382;5.270;2024-01-11T06:23:25;103751.09;;;12.31;49.92
55656;BME280;41530;52.382;5.270;2024-01-11T06:25:52;103757.09;;;12.36;49.92
55656;BME280;41530;52.382;5.270;2024-01-11T06:28:19;103760.69;;;12.33;49.96
55656;BME280;41530;52.382;5.270;2024-01-11T06:30:45;103768.56;;;12.35;49.78
55656;BME280;41530;52.382;5.270;2024-01-11T06:33:12;103755.50;;;12.30;49.87
55656;BME280;41530;52.382;5.270;2024-01-11T06:35:39;103767.72;;;12.34;49.64
55656;BME280;41530;52.382;5.270;2024-01-11T06:38:08;103759.00;;;12.31;49.54
55656;BME280;41530;52.382;5.270;2024-01-11T06:40:35;103763.47;;;12.29;49.74
55656;BME280;41530;52.382;5.270;2024-01-11T06:43:02;103772.16;;;12.32;49.60
55656;BME280;41530;52.382;5.270;2024-01-11T06:45:29;103751.38;;;12.22;49.34
55656;BME280;41530;52.382;5.270;2024-01-11T06:47:56;103760.91;;;12.26;49.31
55656;BME280;41530;52.382;5.270;2024-01-11T06:50:23;103743.53;;;12.19;49.45
55656;BME280;41530;52.382;5.270;2024-01-11T06:52:50;103733.97;;;12.14;49.26
55656;BME280;41530;52.382;5.270;2024-01-11T06:55:17;103741.69;;;12.22;49.08
55656;BME280;41530;52.382;5.270;2024-01-11T06:57:47;103744.38;;;12.21;49.40
55656;BME280;41530;52.382;5.270;2024-01-11T07:00:14;103734.75;;;12.18;49.39
55656;BME280;41530;52.382;5.270;2024-01-11T07:02:41;103742.59;;;12.21;49.22
55656;BME280;41530;52.382;5.270;2024-01-11T07:05:08;103716.53;;;12.10;49.01
55656;BME280;41530;52.382;5.270;2024-01-11T07:07:35;103730.47;;;12.14;49.24
55656;BME280;41530;52.382;5.270;2024-01-11T07:10:02;103715.75;;;12.07;48.92
55656;BME280;41530;52.382;5.270;2024-01-11T07:12:31;103726.19;;;12.11;48.94
55656;BME280;41530;52.382;5.270;2024-01-11T07:14:59;103733.13;;;12.14;48.80
55656;BME280;41530;52.382;5.270;2024-01-11T07:17:25;103713.25;;;12.02;49.09
55656;BME280;41530;52.382;5.270;2024-01-11T07:19:52;103733.31;;;12.08;48.94
55656;BME280;41530;52.382;5.270;2024-01-11T07:22:19;103725.56;;;12.02;49.12
55656;BME280;41530;52.382;5.270;2024-01-11T07:24:46;103715.22;;;11.96;49.21
55656;BME280;41530;52.382;5.270;2024-01-11T07:27:13;103739.50;;;12.07;49.07
55656;BME280;41530;52.382;5.270;2024-01-11T07:29:39;103743.13;;;12.03;49.02
55656;BME280;41530;52.382;5.270;2024-01-11T07:32:06;103747.38;;;12.08;49.10
55656;BME280;41530;52.382;5.270;2024-01-11T07:34:33;103737.22;;;11.95;49.18
55656;BME280;41530;52.382;5.270;2024-01-11T07:37:00;103747.69;;;11.98;49.39
55656;BME280;41530;52.382;5.270;2024-01-11T07:39:26;103765.94;;;12.05;49.04
55656;BME280;41530;52.382;5.270;2024-01-11T07:41:53;103753.84;;;11.98;49.37
55656;BME280;41530;52.382;5.270;2024-01-11T07:44:20;103761.59;;;12.03;49.23
55656;BME280;41530;52.382;5.270;2024-01-11T07:46:47;103760.69;;;12.04;49.18
55656;BME280;41530;52.382;5.270;2024-01-11T07:49:20;103745.19;;;11.93;49.26
55656;BME280;41530;52.382;5.270;2024-01-11T07:51:47;103716.66;;;11.76;49.09
55656;BME280;41530;52.382;5.270;2024-01-11T07:54:14;103749.31;;;12.02;49.21
55656;BME280;41530;52.382;5.270;2024-01-11T07:56:41;103737.03;;;12.01;49.46
55656;BME280;41530;52.382;5.270;2024-01-11T07:59:08;103711.88;;;11.89;49.04
55656;BME280;41530;52.382;5.270;2024-01-11T08:01:40;103751.09;;;12.01;49.19
55656;BME280;41530;52.382;5.270;2024-01-11T08:04:07;103745.06;;;11.98;48.97
55656;BME280;41530;52.382;5.270;2024-01-11T08:06:34;103735.50;;;11.94;49.28
55656;BME280;41530;52.382;5.270;2024-01-11T08:09:01;103736.16;;;12.00;49.24
55656;BME280;41530;52.382;5.270;2024-01-11T08:11:27;103732.72;;;11.98;49.03
55656;BME280;41530;52.382;5.270;2024-01-11T08:13:57;103723.34;;;11.88;49.28
55656;BME280;41530;52.382;5.270;2024-01-11T08:16:23;103761.59;;;12.03;49.17
55656;BME280;41530;52.382;5.270;2024-01-11T08:18:50;103754.63;;;12.00;49.24
55656;BME280;41530;52.382;5.270;2024-01-11T08:21:17;103752.00;;;12.00;49.20
55656;BME280;41530;52.382;5.270;2024-01-11T08:23:43;103760.78;;;12.01;49.35
55656;BME280;41530;52.382;5.270;2024-01-11T08:26:12;103763.47;;;11.99;49.34
55656;BME280;41530;52.382;5.270;2024-01-11T08:28:41;103763.47;;;11.99;49.39
55656;BME280;41530;52.382;5.270;2024-01-11T08:31:07;103751.44;;;11.89;48.98
55656;BME280;41530;52.382;5.270;2024-01-11T08:33:35;103766.22;;;11.96;49.25
55656;BME280;41530;52.382;5.270;2024-01-11T08:36:05;103767.19;;;11.92;49.14
55656;BME280;41530;52.382;5.270;2024-01-11T08:38:33;103777.66;;;11.95;49.18
55656;BME280;41530;52.382;5.270;2024-01-11T08:41:00;103789.09;;;11.96;49.43
55656;BME280;41530;52.382;5.270;2024-01-11T08:43:28;103792.59;;;11.96;49.12
55656;BME280;41530;52.382;5.270;2024-01-11T08:45:55;103790.81;;;11.97;49.15
55656;BME280;41530;52.382;5.270;2024-01-11T08:48:22;103792.69;;;11.93;49.27
55656;BME280;41530;52.382;5.270;2024-01-11T08:50:48;103784.88;;;11.89;49.25
55656;BME280;41530;52.382;5.270;2024-01-11T08:53:15;103786.66;;;11.88;49.31
55656;BME280;41530;52.382;5.270;2024-01-11T08:55:43;103777.00;;;11.87;49.24
55656;BME280;41530;52.382;5.270;2024-01-11T08:58:13;103782.28;;;11.87;49.13
55656;BME280;41530;52.382;5.270;2024-01-11T09:00:39;103779.75;;;11.84;49.21
55656;BME280;41530;52.382;5.270;2024-01-11T09:03:06;103777.97;;;11.85;49.24
55656;BME280;41530;52.382;5.270;2024-01-11T09:05:33;103787.56;;;11.87;49.34
55656;BME280;41530;52.382;5.270;2024-01-11T09:08:00;103784.00;;;11.88;49.31
55656;BME280;41530;52.382;5.270;2024-01-11T09:10:27;103791.22;;;11.83;49.43
55656;BME280;41530;52.382;5.270;2024-01-11T09:12:54;103792.94;;;11.84;49.37
55656;BME280;41530;52.382;5.270;2024-01-11T09:15:21;103808.59;;;11.90;49.16
55656;BME280;41530;52.382;5.270;2024-01-11T09:17:48;103798.16;;;11.86;49.33
55656;BME280;41530;52.382;5.270;2024-01-11T09:20:16;103806.03;;;11.87;49.06
55656;BME280;41530;52.382;5.270;2024-01-11T09:22:43;103789.59;;;11.77;49.32
55656;BME280;41530;52.382;5.270;2024-01-11T09:25:10;103793.03;;;11.81;49.22
55656;BME280;41530;52.382;5.270;2024-01-11T09:27:36;103809.69;;;11.83;49.84
55656;BME280;41530;52.382;5.270;2024-01-11T09:30:03;103821.81;;;11.89;49.46
55656;BME280;41530;52.382;5.270;2024-01-11T09:32:31;103802.81;;;11.76;49.24
55656;BME280;41530;52.382;5.270;2024-01-11T09:34:58;103806.19;;;11.83;49.38
55656;BME280;41530;52.382;5.270;2024-01-11T09:37:25;103817.47;;;11.86;49.26
55656;BME280;41530;52.382;5.270;2024-01-11T09:39:51;103802.56;;;11.85;49.39
55656;BME280;41530;52.382;5.270;2024-01-11T09:42:18;103809.56;;;11.86;49.19
55656;BME280;41530;52.382;5.270;2024-01-11T09:44:45;103813.03;;;11.88;49.16
55656;BME280;41530;52.382;5.270;2024-01-11T09:47:14;103807.84;;;11.85;49.21
55656;BME280;41530;52.382;5.270;2024-01-11T09:49:44;103795.69;;;11.80;49.48
55656;BME280;41530;52.382;5.270;2024-01-11T09:52:12;103813.13;;;11.85;49.21
55656;BME280;41530;52.382;5.270;2024-01-11T09:54:41;103806.22;;;11.81;49.40
55656;BME280;41530;52.382;5.270;2024-01-11T09:57:09;103815.66;;;11.88;49.52
55656;BME280;41530;52.382;5.270;2024-01-11T09:59:36;103826.16;;;11.91;49.05
55656;BME280;41530;52.382;5.270;2024-01-11T10:02:04;103823.56;;;11.90;49.36
55656;BME280;41530;52.382;5.270;2024-01-11T10:04:35;103798.34;;;11.80;49.33
55656;BME280;41530;52.382;5.270;2024-01-11T10:07:04;103811.41;;;11.84;49.43
55656;BME280;41530;52.382;5.270;2024-01-11T10:09:32;103825.28;;;11.91;49.33
55656;BME280;41530;52.382;5.270;2024-01-11T10:11:59;103814.91;;;11.85;49.13
55656;BME280;41530;52.382;5.270;2024-01-11T10:14:26;103819.41;;;11.81;49.10
55656;BME280;41530;52.382;5.270;2024-01-11T10:16:54;103834.97;;;11.90;49.56
55656;BME280;41530;52.382;5.270;2024-01-11T10:19:21;103845.47;;;11.92;49.02
55656;BME280;41530;52.382;5.270;2024-01-11T10:21:48;103825.47;;;11.85;49.30
55656;BME280;41530;52.382;5.270;2024-01-11T10:24:19;103835.94;;;11.86;49.13
55656;BME280;41530;52.382;5.270;2024-01-11T10:26:58;103840.16;;;11.93;49.23
55656;BME280;41530;52.382;5.270;2024-01-11T10:29:30;103835.78;;;11.92;49.08
55656;BME280;41530;52.382;5.270;2024-01-11T10:31:56;103833.38;;;11.85;49.31
55656;BME280;41530;52.382;5.270;2024-01-11T10:34:23;103855.13;;;11.93;49.40
55656;BME280;41530;52.382;5.270;2024-01-11T10:36:51;103833.41;;;11.83;49.10
55656;BME280;41530;52.382;5.270;2024-01-11T10:39:17;103866.50;;;11.95;49.17
55656;BME280;41530;52.382;5.270;2024-01-11T10:41:51;103857.81;;;11.91;48.59
55656;BME280;41530;52.382;5.270;2024-01-11T10:44:21;103847.41;;;11.85;48.75
55656;BME280;41530;52.382;5.270;2024-01-11T10:46:49;103864.91;;;11.89;48.52
55656;BME280;41530;52.382;5.270;2024-01-11T10:49:18;103871.81;;;11.93;52.29
55656;BME280;41530;52.382;5.270;2024-01-11T10:51:50;103862.19;;;11.92;50.30
55656;BME280;41530;52.382;5.270;2024-01-11T10:54:20;103862.09;;;11.95;50.05
55656;BME280;41530;52.382;5.270;2024-01-11T10:56:48;103857.72;;;11.94;50.03
55656;BME280;41530;52.382;5.270;2024-01-11T10:59:16;103859.47;;;11.95;49.81
55656;BME280;41530;52.382;5.270;2024-01-11T11:01:45;103860.34;;;11.96;50.03
55656;BME280;41530;52.382;5.270;2024-01-11T11:04:13;103854.16;;;11.97;49.92
55656;BME280;41530;52.382;5.270;2024-01-11T11:06:42;103854.22;;;11.94;49.75
55656;BME280;41530;52.382;5.270;2024-01-11T11:09:11;103855.06;;;11.96;49.74
55656;BME280;41530;52.382;5.270;2024-01-11T11:11:40;103847.13;;;11.96;49.47
55656;BME280;41530;52.382;5.270;2024-01-11T11:14:07;103826.25;;;11.87;49.28
55656;BME280;41530;52.382;5.270;2024-01-11T11:16:36;103826.22;;;11.88;49.34
55656;BME280;41530;52.382;5.270;2024-01-11T11:19:03;103831.28;;;11.97;49.26
55656;BME280;41530;52.382;5.270;2024-01-11T11:21:30;103821.59;;;11.98;49.15
55656;BME280;41530;52.382;5.270;2024-01-11T11:23:57;103824.16;;;11.99;49.40
55656;BME280;41530;52.382;5.270;2024-01-11T11:26:26;103827.66;;;12.00;49.12
55656;BME280;41530;52.382;5.270;2024-01-11T11:28:57;103814.53;;;11.98;49.11
55656;BME280;41530;52.382;5.270;2024-01-11T11:31:37;103816.16;;;12.02;49.09
55656;BME280;41530;52.382;5.270;2024-01-11T11:34:07;103813.56;;;12.01;48.97
55656;BME280;41530;52.382;5.270;2024-01-11T11:36:39;103805.81;;;11.95;48.82
55656;BME280;41530;52.382;5.270;2024-01-11T11:39:06;103788.38;;;11.89;49.31
55656;BME280;41530;52.382;5.270;2024-01-11T11:41:35;103816.91;;;12.07;49.06
55656;BME280;41530;52.382;5.270;2024-01-11T11:44:04;103801.22;;;12.01;48.86
55656;BME280;41530;52.382;5.270;2024-01-11T11:46:34;103795.00;;;12.04;48.77
55656;BME280;41530;52.382;5.270;2024-01-11T11:49:01;103793.97;;;12.09;48.99
55656;BME280;41530;52.382;5.270;2024-01-11T11:51:27;103793.06;;;12.10;49.03
55656;BME280;41530;52.382;5.270;2024-01-11T11:53:57;103763.47;;;11.99;48.79
55656;BME280;41530;52.382;5.270;2024-01-11T11:56:24;103776.41;;;12.08;48.86
55656;BME280;41530;52.382;5.270;2024-01-11T11:58:51;103780.66;;;12.12;48.71
55656;BME280;41530;52.382;5.270;2024-01-11T12:01:20;103765.84;;;12.08;48.42
55656;BME280;41530;52.382;5.270;2024-01-11T12:03:47;103760.53;;;12.10;48.59
55656;BME280;41530;52.382;5.270;2024-01-11T12:06:18;103756.91;;;12.12;48.40
55656;BME280;41530;52.382;5.270;2024-01-11T12:08:46;103750.84;;;12.10;48.66
55656;BME280;41530;52.382;5.270;2024-01-11T12:11:23;103754.22;;;12.14;48.40
55656;BME280;41530;52.382;5.270;2024-01-11T12:13:50;103761.25;;;12.15;48.41
55656;BME280;41530;52.382;5.270;2024-01-11T12:16:18;103736.81;;;12.08;48.42
55656;BME280;41530;52.382;5.270;2024-01-11T12:18:45;103741.06;;;12.12;48.62
55656;BME280;41530;52.382;5.270;2024-01-11T12:21:12;103739.31;;;12.13;48.42
55656;BME280;41530;52.382;5.270;2024-01-11T12:23:40;103745.41;;;12.15;48.30
55656;BME280;41530;52.382;5.270;2024-01-11T12:26:08;103745.41;;;12.15;48.41
55656;BME280;41530;52.382;5.270;2024-01-11T12:28:40;103746.19;;;12.19;48.33
55656;BME280;41530;52.382;5.270;2024-01-11T12:31:07;103745.31;;;12.18;48.43
55656;BME280;41530;52.382;5.270;2024-01-11T12:33:35;103741.78;;;12.19;48.46
55656;BME280;41530;52.382;5.270;2024-01-11T12:36:06;103730.44;;;12.16;48.32
55656;BME280;41530;52.382;5.270;2024-01-11T12:38:35;103735.63;;;12.19;48.35
55656;BME280;41530;52.382;5.270;2024-01-11T12:41:03;103728.56;;;12.19;48.35
55656;BME280;41530;52.382;5.270;2024-01-11T12:43:30;103725.88;;;12.21;48.72
55656;BME280;41530;52.382;5.270;2024-01-11T12:45:57;103724.22;;;12.18;48.33
55656;BME280;41530;52.382;5.270;2024-01-11T12:48:24;103724.03;;;12.24;48.41
55656;BME280;41530;52.382;5.270;2024-01-11T12:50:52;103711.81;;;12.20;48.31